Vingaren — OZ2131 — position and weather

sailwx.info

Track history (hours):
 
Tides and Currents Weather Stations Pressure Air Temp Water Temp Dewpoint Dewpoint Depression Visibility Wind Speed Wind Dir Waves Ship Positions

Vingaren

Last reported at 2014-Aug-29 14:24 UTC. Time now 2014-Sep-03 07:26 UTC.
Position N 59°35' E 023°05'.

Length 89 m; draft 6.5 m.

Type: Cargo ship. MMSI: 231844000.

Date/timePositionNaut miles runAvg speedWind from/ knotsBaromVisibWave heightAir tempDewpointWater temp
2014-Aug-29 14:24N 59°35' E 023°05'8 9.2
2014-Aug-29 13:34N 59°37' E 023°19'9 9.0
2014-Aug-29 12:34N 59°40' E 023°36'8 7.9
2014-Aug-29 11:34N 59°42' E 023°52'8 7.7
2014-Aug-29 10:33N 59°45' E 024°06'16 8.3
2014-Aug-29 08:34N 59°48' E 024°38'55 7.9
2014-Aug-29 01:33N 59°40' E 026°27'  
2014-Aug-19 22:33N 59°52' E 026°28'7 7.0
2014-Aug-19 21:33N 59°59' E 026°28'6 6.2
2014-Aug-19 20:33N 60°01' E 026°40'10 7.0
2014-Aug-19 19:12N 59°60' E 026°59'  
Track history (hours):
 
Tides and Currents Weather Stations Pressure Air Temp Water Temp Dewpoint Dewpoint Depression Visibility Wind Speed Wind Dir Waves Ship Positions

Vingaren

Last reported at 2014-Aug-29 14:24 UTC. Time now 2014-Sep-03 07:26 UTC.
Position N 59°35' E 023°05'.

Length 89 m; draft 6.5 m.

Type: Cargo ship. MMSI: 231844000.

Date/timePositionNaut miles runAvg speedWind from/ knotsBaromVisibWave heightAir tempDewpointWater temp
2014-Aug-29 14:24N 59°35' E 023°05'8 9.2
2014-Aug-29 13:34N 59°37' E 023°19'9 9.0
2014-Aug-29 12:34N 59°40' E 023°36'8 7.9
2014-Aug-29 11:34N 59°42' E 023°52'8 7.7
2014-Aug-29 10:33N 59°45' E 024°06'16 8.3
2014-Aug-29 08:34N 59°48' E 024°38'55 7.9
2014-Aug-29 01:33N 59°40' E 026°27'  
2014-Aug-19 22:33N 59°52' E 026°28'7 7.0
2014-Aug-19 21:33N 59°59' E 026°28'6 6.2
2014-Aug-19 20:33N 60°01' E 026°40'10 7.0
2014-Aug-19 19:12N 59°60' E 026°59'  

Dump ship's entire track history